Archival Weather

Snohomish County (Paine Fld)

Everett, Washington (KPAE)

Report from: Thursday, November 16, 2023 2:18 PM PST
Current time: Sunday, June 16, 2024 11:58 PM PDT

Current weather – Weather history – Daily summaries
Weather forecast

Temperature7.2°C (45.0°F)
Wind chill5.5°C (41.8°F)
Dew point-0.6°C (30.9°F)
Winds 5 kts (2.6 m/s, 5.8 mph) North (350°)
Visibility10 mi. (16.1 km)
Clouds Sky clear
Altimeter30.12 in.Hg (1020 mB)
Relative humidity58 %
Density altitude-1,076 ft. (-328 m)
Remarks Automated weather observing station with precipitation discriminator
Flight conditions Visual Meteorological Conditions
Raw dataKPAE 162218Z 35005KT 10SM CLR 07/M01 A3012 RMK AO2 T00721006
An error has occurred. This application may no longer respond until reloaded. Reload 🗙